Time;durP1;ratioP1;P1;durP2;ratioP2;P2;SDS_P1;SDS_P2;PMS_P1;PMS_P2;Temp;Humidity;BMP_temperature;BMP_pressure;BME280_temperature;BME280_humidity;BME280_pressure;Samples;Min_cycle;Max_cycle;Signal;HPM_P1;HPM_P2
2022/02/03 00:00:55;;;;;;;2.25;0.90;;;23.20;33.50;;;;;;5011203;28;20477;-67
2022/02/03 00:03:36;;;;;;;2.45;0.90;;;23.10;33.40;;;;;;5011644;28;20476;-67
2022/02/03 00:06:08;;;;;;;2.47;0.80;;;23.10;33.40;;;;;;5011650;28;20393;-67
2022/02/03 00:09:00;;;;;;;2.83;1.00;;;23.10;33.50;;;;;;5011328;28;20442;-67
2022/02/03 00:17:05;;;;;;;1.80;0.80;;;23.00;33.50;;;;;;5011325;28;20796;-67
2022/02/03 00:25:09;;;;;;;1.50;0.70;;;22.90;33.60;;;;;;5011109;28;20411;-67
2022/02/03 00:30:12;;;;;;;2.53;0.87;;;22.90;33.60;;;;;;5010697;28;20536;-67
2022/02/03 00:38:26;;;;;;;2.63;0.88;;;22.80;33.60;;;;;;5002836;28;20393;-67
2022/02/03 00:49:09;;;;;;;2.58;0.90;;;22.70;33.70;;;;;;5011201;28;20427;-67
2022/02/03 00:51:38;;;;;;;1.75;0.77;;;22.60;33.70;;;;;;5011318;28;20392;-67
2022/02/03 00:54:08;;;;;;;2.65;0.90;;;22.60;33.70;;;;;;5011165;28;20397;-66
2022/02/03 00:56:36;;;;;;;2.20;0.98;;;22.60;33.70;;;;;;5009875;28;20397;-66
2022/02/03 00:59:04;;;;;;;2.40;0.80;;;22.60;33.80;;;;;;5009958;28;20404;-66
2022/02/03 01:01:33;;;;;;;1.98;0.80;;;22.50;33.80;;;;;;5014708;28;20458;-67
2022/02/03 01:04:05;;;;;;;3.20;0.90;;;22.50;33.80;;;;;;5013242;28;20388;-67
2022/02/03 01:06:33;;;;;;;1.90;0.77;;;22.50;33.80;;;;;;5014634;28;20753;-67
2022/02/03 01:08:59;;;;;;;1.70;0.80;;;22.50;33.80;;;;;;5014144;28;20389;-67
2022/02/03 01:11:29;;;;;;;1.80;1.10;;;22.50;33.80;;;;;;5014352;28;20411;-66
2022/02/03 01:33:30;;;;;;;1.90;0.80;;;22.30;33.90;;;;;;5014254;28;20404;-67
2022/02/03 01:44:01;;;;;;;1.80;0.80;;;22.20;34.00;;;;;;5014150;28;20392;-64
2022/02/03 01:46:48;;;;;;;1.95;0.80;;;22.10;34.00;;;;;;5012308;28;20427;-65
2022/02/03 01:49:17;;;;;;;2.50;0.70;;;22.10;34.10;;;;;;5013799;28;20490;-65
2022/02/03 01:51:55;;;;;;;1.70;0.80;;;22.10;34.10;;;;;;5013798;28;20389;-64
2022/02/03 01:54:30;;;;;;;1.83;0.73;;;22.00;34.10;;;;;;5013640;28;20740;-64
2022/02/03 01:57:12;;;;;;;3.30;0.80;;;22.00;34.10;;;;;;5013098;28;20388;-65
2022/02/03 01:59:40;;;;;;;1.93;0.83;;;22.00;34.10;;;;;;5013550;28;20413;-65
2022/02/03 02:02:07;;;;;;;2.05;0.90;;;22.00;34.10;;;;;;5012824;28;20389;-65
2022/02/03 02:05:02;;;;;;;2.10;0.83;;;22.00;34.10;;;;;;5012159;28;20405;-65
2022/02/03 02:07:43;;;;;;;2.10;0.63;;;22.10;34.00;;;;;;5013338;28;20381;-65
2022/02/03 02:10:47;;;;;;;2.67;0.80;;;22.10;33.50;;;;;;5013340;28;20432;-65
2022/02/03 02:38:42;;;;;;;1.80;0.90;;;22.00;33.80;;;;;;5006784;28;20396;-65
2022/02/03 02:44:43;;;;;;;1.15;0.63;;;21.90;33.90;;;;;;5012438;28;20395;-65
2022/02/03 02:47:18;;;;;;;1.50;0.80;;;21.80;33.90;;;;;;5011648;28;20884;-66
2022/02/03 02:50:01;;;;;;;1.93;0.70;;;21.80;34.00;;;;;;5011179;28;20468;-64
2022/02/03 02:52:37;;;;;;;2.10;1.00;;;21.90;33.90;;;;;;5012608;28;20407;-65
2022/02/03 03:36:03;;;;;;;0.88;0.50;;;21.60;34.20;;;;;;5012054;28;20392;-65
2022/02/03 03:38:33;;;;;;;2.00;0.82;;;21.70;34.40;;;;;;5010673;28;20405;-65
2022/02/03 03:41:00;;;;;;;1.87;0.70;;;21.60;34.00;;;;;;5011354;28;20429;-65
2022/02/03 03:43:55;;;;;;;1.40;0.60;;;21.60;33.70;;;;;;5011742;28;20392;-65
2022/02/03 03:46:32;;;;;;;1.27;0.60;;;21.50;34.20;;;;;;5011683;28;20424;-64
2022/02/03 03:49:33;;;;;;;2.28;0.65;;;21.50;34.40;;;;;;5011319;28;20868;-65
2022/02/03 03:52:06;;;;;;;1.27;0.60;;;21.50;34.10;;;;;;5011448;28;20389;-65
2022/02/03 03:54:38;;;;;;;1.60;0.70;;;21.60;34.00;;;;;;5009958;28;20404;-65
2022/02/03 04:46:00;;;;;;;2.10;0.70;;;21.50;36.80;;;;;;5014325;28;20459;-65
2022/02/03 05:03:14;;;;;;;1.38;0.60;;;21.50;36.80;;;;;;5014759;28;20412;-68
2022/02/03 05:09:07;;;;;;;2.20;0.85;;;21.50;36.50;;;;;;5014795;28;20879;-66
2022/02/03 05:11:54;;;;;;;2.55;0.52;;;21.60;36.40;;;;;;5014564;28;20480;-65
2022/02/03 05:33:11;;;;;;;2.42;0.70;;;21.80;35.70;;;;;;5029771;28;20386;-68
2022/02/03 05:44:40;;;;;;;2.13;0.55;;;21.80;35.60;;;;;;5033669;28;20479;-69
2022/02/03 06:13:42;;;;;;;1.42;0.63;;;21.80;35.60;;;;;;5033395;28;20385;-67
2022/02/03 06:21:39;;;;;;;3.28;0.80;;;21.80;35.30;;;;;;5033336;28;20449;-67
2022/02/03 06:29:32;;;;;;;2.10;0.70;;;21.80;34.70;;;;;;5012788;28;20499;-65
2022/02/03 06:31:57;;;;;;;2.22;0.70;;;21.80;34.50;;;;;;5024628;28;20387;-68
2022/02/03 06:34:23;;;;;;;2.80;0.70;;;21.80;34.90;;;;;;5030352;28;20449;-69
2022/02/03 06:36:52;;;;;;;3.63;0.82;;;21.80;34.50;;;;;;5030780;28;20388;-70
2022/02/03 06:39:19;;;;;;;2.35;0.80;;;21.80;35.40;;;;;;5030163;28;20411;-70
2022/02/03 06:41:46;;;;;;;1.60;0.70;;;21.90;35.60;;;;;;5030988;28;20411;-69
2022/02/03 06:44:14;;;;;;;1.58;0.75;;;22.00;35.70;;;;;;5041658;28;20394;-72
2022/02/03 06:46:44;;;;;;;2.67;0.80;;;21.90;35.30;;;;;;5032020;28;20434;-68
2022/02/03 06:49:22;;;;;;;1.55;0.73;;;21.90;35.10;;;;;;5030417;28;20419;-71
2022/02/03 06:51:56;;;;;;;1.90;0.70;;;21.90;35.30;;;;;;5030833;28;20399;-68
2022/02/03 06:54:36;;;;;;;3.28;0.90;;;21.90;35.40;;;;;;5031908;28;20438;-68
2022/02/03 06:57:08;;;;;;;2.70;0.73;;;21.90;35.40;;;;;;5030648;28;20911;-72
2022/02/03 06:59:47;;;;;;;1.45;0.70;;;21.90;35.20;;;;;;5030805;28;20418;-68
2022/02/03 07:02:12;;;;;;;3.20;0.77;;;21.90;35.10;;;;;;5029351;28;20430;-69
2022/02/03 07:04:43;;;;;;;1.90;0.70;;;21.90;35.00;;;;;;5030592;28;20556;-68
2022/02/03 07:07:09;;;;;;;1.58;0.63;;;21.80;34.80;;;;;;5031132;28;20890;-69
2022/02/03 07:09:35;;;;;;;3.00;0.90;;;21.80;34.70;;;;;;5031707;28;20391;-68
2022/02/03 07:12:03;;;;;;;1.77;0.80;;;21.80;34.70;;;;;;5031102;28;20482;-68
2022/02/03 07:14:32;;;;;;;2.53;0.80;;;21.90;34.60;;;;;;5031573;28;20461;-69
2022/02/03 07:17:01;;;;;;;1.57;0.90;;;21.80;34.70;;;;;;5031327;28;20929;-68
2022/02/03 07:19:27;;;;;;;1.95;0.60;;;21.80;34.60;;;;;;5031358;28;20473;-69
2022/02/03 07:21:53;;;;;;;1.27;0.70;;;21.80;34.60;;;;;;5031575;28;20395;-68
2022/02/03 07:24:18;;;;;;;2.38;1.05;;;21.80;34.40;;;;;;5029880;28;20906;-68
2022/02/03 07:26:44;;;;;;;2.15;0.63;;;21.80;34.50;;;;;;5030182;28;20399;-69
2022/02/03 07:29:11;;;;;;;1.55;0.77;;;21.80;34.40;;;;;;5030688;28;20386;-69
2022/02/03 07:31:37;;;;;;;1.80;0.80;;;21.80;34.40;;;;;;5031507;28;20399;-68
2022/02/03 07:34:11;;;;;;;1.30;0.70;;;21.80;34.30;;;;;;5031761;28;20383;-69
2022/02/03 07:36:37;;;;;;;2.30;0.80;;;21.80;34.20;;;;;;5031446;28;20390;-69
2022/02/03 07:39:05;;;;;;;2.37;0.80;;;21.80;34.30;;;;;;5030619;28;20383;-69
2022/02/03 07:41:30;;;;;;;1.10;0.80;;;21.80;34.50;;;;;;5031244;28;20462;-68
2022/02/03 07:43:56;;;;;;;2.30;0.60;;;21.80;34.50;;;;;;5031039;28;20383;-69
2022/02/03 07:46:22;;;;;;;1.27;0.70;;;21.80;34.50;;;;;;5030880;28;20419;-69
2022/02/03 07:48:51;;;;;;;3.27;0.87;;;21.80;34.40;;;;;;5031207;28;20890;-69
2022/02/03 07:51:17;;;;;;;2.10;0.80;;;21.80;34.20;;;;;;5029416;28;20399;-69
2022/02/03 07:53:43;;;;;;;1.05;0.60;;;21.80;34.10;;;;;;5030270;28;20395;-68
2022/02/03 07:56:08;;;;;;;2.13;0.80;;;21.80;34.10;;;;;;5030913;28;20402;-69
2022/02/03 07:58:34;;;;;;;1.47;0.83;;;21.80;34.10;;;;;;5031039;28;20471;-69
2022/02/03 08:01:00;;;;;;;1.60;0.80;;;21.80;33.90;;;;;;5029505;28;20422;-69
2022/02/03 08:03:26;;;;;;;1.83;0.90;;;21.80;33.90;;;;;;5029981;28;20395;-69
2022/02/03 08:05:58;;;;;;;1.80;0.80;;;21.80;33.90;;;;;;5031094;28;20395;-69
2022/02/03 08:08:31;;;;;;;2.47;0.80;;;21.80;33.90;;;;;;5032422;28;20938;-69
2022/02/03 08:11:01;;;;;;;2.45;0.80;;;21.80;33.80;;;;;;5035076;28;20399;-69
2022/02/03 08:13:47;;;;;;;1.77;0.80;;;21.80;33.90;;;;;;5035022;28;20465;-69
2022/02/03 08:16:20;;;;;;;1.77;0.70;;;21.80;33.80;;;;;;5034810;28;20398;-69
2022/02/03 08:18:51;;;;;;;2.03;0.68;;;21.80;33.80;;;;;;5033628;28;20457;-69
2022/02/03 08:21:18;;;;;;;2.38;0.70;;;21.80;33.70;;;;;;5033131;28;20906;-69
2022/02/03 08:31:21;;;;;;;1.67;0.80;;;21.80;33.70;;;;;;5034244;28;20391;-69
2022/02/03 08:33:53;;;;;;;2.13;1.00;;;21.70;33.70;;;;;;5021271;28;20400;-70
2022/02/03 08:36:21;;;;;;;1.98;0.90;;;21.80;33.70;;;;;;5014569;28;20488;-69
2022/02/03 08:38:50;;;;;;;1.80;0.77;;;21.70;33.70;;;;;;5013108;28;20442;-69
2022/02/03 08:41:17;;;;;;;1.65;0.80;;;21.70;33.60;;;;;;5013974;28;20420;-70
2022/02/03 08:43:43;;;;;;;1.52;0.70;;;21.70;33.60;;;;;;5014493;28;20852;-68
2022/02/03 08:46:12;;;;;;;2.00;0.90;;;21.70;33.70;;;;;;5014074;28;20420;-68
2022/02/03 08:48:39;;;;;;;1.90;0.80;;;21.70;33.70;;;;;;5014224;28;20412;-70
2022/02/03 08:51:07;;;;;;;1.95;0.80;;;21.70;33.60;;;;;;5013775;28;20738;-69
2022/02/03 08:53:47;;;;;;;1.30;0.70;;;21.70;33.70;;;;;;5012742;28;20392;-69
2022/02/03 08:59:16;;;;;;;1.55;0.70;;;21.70;33.60;;;;;;5014156;28;20891;-68
2022/02/03 09:34:52;;;;;;;1.75;0.73;;;21.70;33.40;;;;;;5033383;28;20815;-69
2022/02/03 09:37:36;;;;;;;1.40;0.77;;;21.70;33.40;;;;;;5032464;28;20878;-68
2022/02/03 09:56:43;;;;;;;1.45;0.80;;;21.90;34.10;;;;;;5031940;28;20410;-67
2022/02/03 09:59:12;;;;;;;1.50;0.70;;;22.00;34.10;;;;;;5029618;28;20767;-67
2022/02/03 10:01:44;;;;;;;3.53;1.02;;;22.10;34.00;;;;;;5029238;28;20952;-68
2022/02/03 10:04:23;;;;;;;1.80;0.70;;;22.10;33.80;;;;;;5029318;28;20435;-67
2022/02/03 10:06:58;;;;;;;2.50;0.95;;;22.10;33.80;;;;;;5031446;28;20498;-67
2022/02/03 10:09:41;;;;;;;1.60;0.88;;;22.20;33.50;;;;;;5029388;28;20401;-67
2022/02/03 10:12:08;;;;;;;1.75;0.70;;;22.20;33.50;;;;;;5030970;28;20477;-67
2022/02/03 10:14:36;;;;;;;2.42;0.80;;;22.20;33.50;;;;;;5027134;28;20381;-67
2022/02/03 10:17:03;;;;;;;1.73;0.75;;;22.30;33.60;;;;;;5031317;28;20399;-67
2022/02/03 10:19:41;;;;;;;2.15;0.80;;;22.30;33.70;;;;;;5029343;28;20525;-67
2022/02/03 10:22:18;;;;;;;1.43;0.80;;;22.30;33.80;;;;;;5028665;28;20455;-67
2022/02/03 10:24:48;;;;;;;1.27;0.68;;;22.30;33.70;;;;;;5029287;28;20786;-69
2022/02/03 10:27:29;;;;;;;2.03;0.77;;;22.30;33.80;;;;;;5033110;28;20403;-67
2022/02/03 10:30:22;;;;;;;1.83;0.90;;;22.30;33.60;;;;;;5032845;28;20379;-70
2022/02/03 10:32:48;;;;;;;1.67;0.90;;;22.30;33.70;;;;;;5031200;28;20483;-67
2022/02/03 10:35:21;;;;;;;1.90;0.80;;;22.30;33.70;;;;;;5031480;28;20478;-66
2022/02/03 10:38:33;;;;;;;1.30;0.70;;;22.20;33.50;;;;;;5030767;28;20453;-67
2022/02/03 10:46:40;;;;;;;2.25;0.90;;;22.30;33.50;;;;;;5029139;28;20399;-67
2022/02/03 10:54:43;;;;;;;1.77;0.70;;;22.30;33.20;;;;;;5031427;28;20406;-68
2022/02/03 11:10:39;;;;;;;1.85;0.90;;;22.40;33.00;;;;;;5031201;28;20447;-67
2022/02/03 11:13:06;;;;;;;2.17;0.80;;;22.40;33.00;;;;;;5031138;28;20395;-67
2022/02/03 11:15:34;;;;;;;1.40;0.70;;;22.40;33.00;;;;;;5029508;28;20392;-67
2022/02/03 11:18:05;;;;;;;1.47;0.67;;;22.40;33.00;;;;;;5026499;28;20400;-67
2022/02/03 11:20:32;;;;;;;1.77;0.80;;;22.40;33.00;;;;;;5009894;28;20424;-67
2022/02/03 11:33:46;;;;;;;1.50;0.70;;;22.60;32.60;;;;;;5010551;28;20479;-68
2022/02/03 11:57:55;;;;;;;1.50;0.60;;;22.80;32.30;;;;;;5028157;28;20399;-67
2022/02/03 12:21:43;;;;;;;2.00;0.63;;;23.00;32.10;;;;;;5030035;28;20441;-69
2022/02/03 12:24:25;;;;;;;1.67;0.70;;;23.00;32.60;;;;;;5030061;28;20398;-68
2022/02/03 12:29:38;;;;;;;1.50;0.70;;;23.00;32.60;;;;;;5029047;28;20398;-69
2022/02/03 12:39:56;;;;;;;1.10;0.50;;;23.10;33.00;;;;;;5029330;28;20407;-67
2022/02/03 12:45:00;;;;;;;1.58;0.57;;;23.20;33.00;;;;;;5029171;28;21586;-67
2022/02/03 12:47:26;;;;;;;1.25;0.50;;;23.20;33.00;;;;;;5027343;28;20423;-68
2022/02/03 12:49:52;;;;;;;2.00;0.65;;;23.20;32.90;;;;;;5028946;28;20879;-68
2022/02/03 12:52:28;;;;;;;1.38;0.70;;;23.20;33.10;;;;;;5030269;28;20395;-68
2022/02/03 12:54:55;;;;;;;1.55;0.65;;;23.10;33.00;;;;;;5030751;28;20440;-67
2022/02/03 12:57:39;;;;;;;1.08;0.55;;;23.10;32.70;;;;;;5033451;28;20383;-68
2022/02/03 13:00:06;;;;;;;2.50;0.50;;;23.10;32.90;;;;;;5033761;28;20403;-67
2022/02/03 13:02:31;;;;;;;1.25;0.50;;;23.10;32.80;;;;;;5033896;28;20399;-68
2022/02/03 13:04:57;;;;;;;1.30;0.60;;;23.10;32.80;;;;;;5032007;28;20871;-67
2022/02/03 13:07:25;;;;;;;1.05;0.50;;;23.10;33.00;;;;;;5031418;28;20403;-67
2022/02/03 13:10:03;;;;;;;0.90;0.53;;;23.10;32.80;;;;;;5033483;28;20415;-68
2022/02/03 13:12:35;;;;;;;0.85;0.43;;;23.10;32.90;;;;;;5033688;28;20762;-68
2022/02/03 13:15:03;;;;;;;1.00;0.53;;;23.10;32.80;;;;;;5033541;28;20948;-68
2022/02/03 13:17:36;;;;;;;1.35;0.60;;;23.10;32.90;;;;;;5032822;28;20414;-67
2022/02/03 13:20:25;;;;;;;1.20;0.60;;;23.10;32.60;;;;;;5033629;28;20410;-68
2022/02/03 13:23:00;;;;;;;1.80;0.50;;;23.10;32.80;;;;;;5033922;28;20434;-68
2022/02/03 13:25:36;;;;;;;2.60;0.60;;;22.90;32.80;;;;;;5033725;28;20387;-71
2022/02/03 13:28:18;;;;;;;1.00;0.50;;;22.90;33.10;;;;;;5034386;28;20403;-68
2022/02/03 13:33:18;;;;;;;1.63;0.50;;;23.00;33.10;;;;;;5032961;28;20894;-67
2022/02/03 13:35:58;;;;;;;1.52;0.50;;;23.00;32.90;;;;;;5033155;28;20465;-68
2022/02/03 13:38:57;;;;;;;1.08;0.50;;;23.00;32.90;;;;;;5033446;28;20406;-70
2022/02/03 13:41:26;;;;;;;1.10;0.50;;;23.00;32.90;;;;;;5032598;28;20411;-68
2022/02/03 13:43:52;;;;;;;0.93;0.45;;;23.00;32.80;;;;;;5031635;28;20387;-67
2022/02/03 13:46:27;;;;;;;0.75;0.43;;;23.00;32.70;;;;;;5032902;28;20411;-68
2022/02/03 13:48:53;;;;;;;1.50;0.60;;;23.00;32.90;;;;;;5032914;28;20383;-68
2022/02/03 13:51:19;;;;;;;0.80;0.40;;;23.00;32.80;;;;;;5032479;28;20410;-67
2022/02/03 13:54:27;;;;;;;1.15;0.60;;;23.00;32.60;;;;;;5032900;28;20403;-68
2022/02/03 14:19:41;;;;;;;1.00;0.40;;;22.90;32.60;;;;;;5012838;28;20951;-68
2022/02/03 14:22:03;;;;;;;1.43;0.50;;;22.90;32.50;;;;;;5011726;28;20448;-68
2022/02/03 14:27:33;;;;;;;1.13;0.43;;;22.90;32.60;;;;;;4990262;28;20431;-67
2022/02/03 14:30:13;;;;;;;0.73;0.32;;;22.90;32.60;;;;;;4990362;28;20462;-68
2022/02/03 14:32:40;;;;;;;1.00;0.50;;;22.90;32.60;;;;;;5002664;28;20487;-68
2022/02/03 14:35:07;;;;;;;0.80;0.50;;;22.90;32.60;;;;;;5012241;28;20393;-68
2022/02/03 14:42:45;;;;;;;1.25;0.50;;;22.80;32.60;;;;;;5012487;28;20389;-67
2022/02/03 14:45:14;;;;;;;1.55;0.50;;;22.90;32.60;;;;;;5030811;28;20419;-70
2022/02/03 14:47:40;;;;;;;0.80;0.50;;;22.80;33.10;;;;;;5028682;28;20757;-68
2022/02/03 14:50:12;;;;;;;0.82;0.50;;;22.80;32.50;;;;;;5030028;28;20387;-67
2022/02/03 14:58:25;;;;;;;0.85;0.40;;;22.80;32.50;;;;;;5030138;28;20395;-68
2022/02/03 15:00:51;;;;;;;0.80;0.47;;;22.80;32.50;;;;;;5031235;28;20423;-69
2022/02/03 15:03:19;;;;;;;0.75;0.47;;;22.80;32.50;;;;;;5031581;28;20920;-68
2022/02/03 15:05:46;;;;;;;0.70;0.40;;;22.80;32.50;;;;;;5031300;28;20482;-69
2022/02/03 15:08:44;;;;;;;0.68;0.40;;;22.80;32.60;;;;;;5031148;28;20402;-68
2022/02/03 15:11:07;;;;;;;2.23;0.60;;;22.70;32.50;;;;;;5031827;28;20400;-71
2022/02/03 15:13:45;;;;;;;4.03;0.75;;;22.70;32.90;;;;;;5031150;28;20418;-70
2022/02/03 15:16:13;;;;;;;2.33;0.60;;;22.60;33.10;;;;;;5030545;28;20442;-70
2022/02/03 15:18:39;;;;;;;2.47;0.50;;;22.60;33.10;;;;;;5031285;28;20387;-69
2022/02/03 15:21:06;;;;;;;0.93;0.50;;;22.60;33.20;;;;;;5030484;28;20838;-67
2022/02/03 15:23:32;;;;;;;2.17;0.80;;;22.60;34.60;;;;;;5032426;28;20879;-67
2022/02/03 15:25:57;;;;;;;2.00;0.60;;;22.60;33.80;;;;;;5012413;28;20856;-67
2022/02/03 15:28:23;;;;;;;1.30;0.60;;;22.70;33.60;;;;;;5010705;28;20423;-67
2022/02/03 15:30:50;;;;;;;2.63;0.60;;;22.70;33.30;;;;;;5016636;28;20396;-67
2022/02/03 15:33:17;;;;;;;1.50;0.60;;;22.70;33.20;;;;;;5014315;28;21043;-70
2022/02/03 15:35:49;;;;;;;1.83;0.50;;;22.70;33.50;;;;;;5030000;28;20423;-69
2022/02/03 15:38:18;;;;;;;2.28;0.70;;;22.70;33.50;;;;;;5027750;28;20394;-70
2022/02/03 15:40:46;;;;;;;1.35;0.60;;;22.70;33.40;;;;;;5028800;28;20414;-67
2022/02/03 15:43:24;;;;;;;1.70;0.60;;;22.60;33.40;;;;;;5031346;28;20379;-67
2022/02/03 15:45:55;;;;;;;3.78;0.60;;;22.60;33.40;;;;;;5029893;28;20415;-66
2022/02/03 16:17:27;;;;;;;1.75;0.70;;;22.60;33.20;;;;;;5031359;28;20422;-66
2022/02/03 16:20:03;;;;;;;1.25;0.60;;;22.50;33.20;;;;;;5031241;28;20505;-67
2022/02/03 16:52:34;;;;;;;2.40;0.68;;;22.30;33.10;;;;;;5023153;28;20379;-67
2022/02/03 16:55:02;;;;;;;2.47;0.70;;;22.30;33.50;;;;;;5032821;28;20411;-67
2022/02/03 16:57:28;;;;;;;3.63;0.70;;;22.20;33.50;;;;;;5033296;28;20399;-67
2022/02/03 17:00:05;;;;;;;2.40;0.90;;;22.20;33.50;;;;;;5031796;28;20807;-67
2022/02/03 17:02:31;;;;;;;2.72;1.08;;;22.20;33.50;;;;;;5018888;28;20875;-68
2022/02/03 17:04:57;;;;;;;4.50;1.00;;;22.10;33.90;;;;;;5034149;28;20421;-67
2022/02/03 17:07:23;;;;;;;2.67;1.00;;;22.10;33.90;;;;;;5033352;28;20457;-67
2022/02/03 17:09:50;;;;;;;6.50;0.90;;;22.10;34.00;;;;;;5032704;28;20398;-67
2022/02/03 17:12:16;;;;;;;3.43;0.80;;;22.10;33.90;;;;;;5032905;28;20391;-67
2022/02/03 17:14:42;;;;;;;4.45;0.98;;;22.00;34.20;;;;;;5032759;28;20903;-67
2022/02/03 17:17:08;;;;;;;4.07;1.33;;;22.00;34.80;;;;;;5033066;28;20484;-67
2022/02/03 17:19:36;;;;;;;3.03;0.77;;;22.00;34.90;;;;;;5032456;28;20395;-67
2022/02/03 17:22:03;;;;;;;2.88;1.10;;;21.90;35.10;;;;;;5032808;28;20974;-67
2022/02/03 17:24:28;;;;;;;5.00;0.98;;;22.10;36.00;;;;;;5034410;28;20390;-68
2022/02/03 17:27:04;;;;;;;6.50;1.23;;;22.20;36.50;;;;;;5033907;28;20487;-68
2022/02/03 17:29:46;;;;;;;5.78;0.93;;;22.20;37.00;;;;;;5033717;28;20926;-67
2022/02/03 18:07:37;;;;;;;4.57;0.98;;;22.20;39.00;;;;;;5031940;28;20391;-66
2022/02/03 18:27:38;;;;;;;2.75;0.90;;;22.20;36.80;;;;;;5012928;28;20762;-67
2022/02/03 18:29:46;;;;;;;2.58;0.90;;;22.20;35.60;;;;;;5021774;28;20388;-69
2022/02/03 18:37:09;;;;;;;3.92;1.13;;;22.20;38.90;;;;;;5032065;28;20401;-71
2022/02/03 18:50:25;;;;;;;3.45;1.10;;;22.20;38.20;;;;;;5030937;28;20413;-71
2022/02/03 18:55:25;;;;;;;6.07;1.40;;;22.30;37.30;;;;;;5032978;28;20486;-69
2022/02/03 18:58:07;;;;;;;3.55;1.30;;;22.20;37.00;;;;;;5028879;28;20395;-68
2022/02/03 19:03:15;;;;;;;3.88;1.40;;;22.40;38.40;;;;;;5032929;28;20847;-68
2022/02/03 19:12:01;;;;;;;3.20;1.50;;;22.50;38.30;;;;;;5031344;28;20418;-72
2022/02/03 20:11:54;;;;;;;10.40;3.30;;;23.50;42.70;;;;;;5034347;28;20406;-73
2022/02/03 20:14:20;;;;;;;10.07;3.27;;;23.50;42.70;;;;;;5036499;28;20759;-69
2022/02/03 20:16:47;;;;;;;12.25;3.33;;;23.40;42.40;;;;;;5035473;28;20398;-73
2022/02/03 20:19:13;;;;;;;10.70;3.55;;;23.50;42.40;;;;;;5035575;28;20393;-73
2022/02/03 20:21:41;;;;;;;9.35;3.17;;;23.50;42.10;;;;;;5037399;28;20418;-74
2022/02/03 20:24:07;;;;;;;6.55;2.67;;;23.50;42.20;;;;;;5036085;28;20418;-73
2022/02/03 20:26:35;;;;;;;6.88;2.67;;;23.40;41.00;;;;;;5035177;28;20982;-71
2022/02/03 20:29:01;;;;;;;9.93;2.70;;;23.40;42.10;;;;;;5036568;28;20466;-72
2022/02/03 20:31:27;;;;;;;7.05;2.60;;;23.40;41.70;;;;;;5036450;28;20460;-68
2022/02/03 20:33:53;;;;;;;8.20;2.63;;;23.40;41.30;;;;;;5035172;28;20916;-72
2022/02/03 20:36:19;;;;;;;7.95;2.83;;;23.40;41.20;;;;;;5035332;28;20791;-74
2022/02/03 20:38:44;;;;;;;8.20;2.70;;;23.40;41.40;;;;;;5034150;28;20399;-69
2022/02/03 20:41:10;;;;;;;8.35;2.58;;;23.40;41.10;;;;;;5035509;28;20473;-67
2022/02/03 20:43:36;;;;;;;8.37;2.27;;;23.40;40.70;;;;;;5036177;28;20743;-69
2022/02/03 20:46:04;;;;;;;6.20;2.30;;;23.30;40.20;;;;;;5035218;28;20795;-70
2022/02/03 20:48:31;;;;;;;6.28;2.28;;;23.20;40.30;;;;;;5030323;28;20460;-67
2022/02/03 20:50:58;;;;;;;5.10;1.80;;;23.20;40.30;;;;;;5036119;28;20395;-69
2022/02/03 20:53:24;;;;;;;4.75;1.88;;;23.10;39.40;;;;;;5035652;28;20479;-68
2022/02/03 20:55:50;;;;;;;4.45;1.58;;;23.10;38.00;;;;;;5032921;28;20478;-71
2022/02/03 20:58:20;;;;;;;5.20;2.10;;;23.10;37.10;;;;;;5035118;28;20430;-70
2022/02/03 21:00:55;;;;;;;5.22;1.80;;;23.00;36.70;;;;;;5035419;28;20439;-70
2022/02/03 21:03:43;;;;;;;4.47;1.70;;;22.90;37.50;;;;;;5037107;28;20422;-72
2022/02/03 21:06:10;;;;;;;5.00;1.53;;;22.80;37.10;;;;;;5037162;28;20469;-70
2022/02/03 21:08:39;;;;;;;4.82;1.95;;;22.80;37.00;;;;;;5037398;28;20391;-71
2022/02/03 21:11:05;;;;;;;5.53;2.22;;;22.80;37.00;;;;;;5037054;28;20430;-72
2022/02/03 21:13:31;;;;;;;6.07;2.60;;;22.80;36.60;;;;;;5037284;28;20847;-71
2022/02/03 21:15:59;;;;;;;4.30;1.60;;;22.80;36.30;;;;;;5033027;28;20403;-71
2022/02/03 21:18:26;;;;;;;4.03;1.88;;;22.80;37.20;;;;;;5032973;28;20403;-71
2022/02/03 21:20:51;;;;;;;3.53;1.92;;;22.80;36.90;;;;;;5034015;28;20415;-71
2022/02/03 21:23:18;;;;;;;5.87;2.13;;;22.70;37.00;;;;;;5033866;28;20478;-71
2022/02/03 21:25:47;;;;;;;5.35;2.03;;;22.60;37.00;;;;;;5033409;28;20395;-71
2022/02/03 21:28:21;;;;;;;3.28;1.95;;;22.60;36.90;;;;;;5033771;28;20426;-72
2022/02/03 21:30:50;;;;;;;5.43;1.80;;;22.70;36.70;;;;;;5025923;28;20454;-71
2022/02/03 21:33:32;;;;;;;5.25;1.90;;;22.60;36.40;;;;;;5027356;28;20394;-71
2022/02/03 21:36:14;;;;;;;6.25;1.85;;;22.70;35.90;;;;;;5033684;28;20446;-71
2022/02/03 21:38:42;;;;;;;3.80;1.67;;;22.60;35.70;;;;;;5032493;28;20871;-71
2022/02/03 21:41:10;;;;;;;4.80;1.50;;;22.60;35.40;;;;;;5033693;28;20537;-72
2022/02/03 21:43:37;;;;;;;2.85;1.45;;;22.60;35.20;;;;;;5032297;28;20383;-72
2022/02/03 21:46:03;;;;;;;4.18;1.58;;;22.60;35.10;;;;;;5031452;28;20469;-72
2022/02/03 21:48:29;;;;;;;3.72;1.52;;;22.60;35.00;;;;;;5033477;28;20390;-73
2022/02/03 21:50:58;;;;;;;2.38;1.25;;;22.50;35.00;;;;;;5033180;28;20399;-73
2022/02/03 21:53:29;;;;;;;3.22;1.40;;;22.50;35.10;;;;;;5032027;28;20422;-71
2022/02/03 21:55:56;;;;;;;3.38;1.50;;;22.40;35.10;;;;;;5031298;28;20410;-71
2022/02/03 21:58:28;;;;;;;2.30;1.20;;;22.40;35.10;;;;;;5033014;28;20388;-71
2022/02/03 22:00:55;;;;;;;2.50;1.30;;;22.40;35.00;;;;;;5031556;28;20419;-71
2022/02/03 22:03:24;;;;;;;4.63;1.40;;;22.40;35.00;;;;;;5031979;28;20399;-71
2022/02/03 22:05:51;;;;;;;3.72;1.45;;;22.40;35.00;;;;;;5032311;28;20484;-71
2022/02/03 22:08:17;;;;;;;2.03;1.17;;;22.30;35.00;;;;;;5031917;28;20395;-71
2022/02/03 22:10:43;;;;;;;3.10;1.30;;;22.30;35.00;;;;;;5031945;28;20438;-72
2022/02/03 22:13:09;;;;;;;2.00;1.10;;;22.30;35.00;;;;;;5032861;28;20422;-71
2022/02/03 22:15:35;;;;;;;2.72;1.33;;;22.30;35.00;;;;;;5033106;28;20397;-70
2022/02/03 22:18:02;;;;;;;2.42;1.30;;;22.30;35.00;;;;;;5032377;28;20391;-71
2022/02/03 22:20:38;;;;;;;3.10;1.40;;;22.30;35.10;;;;;;5032819;28;20778;-70
2022/02/03 22:23:19;;;;;;;2.35;1.10;;;22.20;35.20;;;;;;5032639;28;20477;-71
2022/02/03 22:44:25;;;;;;;3.78;1.67;;;22.30;35.90;;;;;;5032326;28;20434;-69
2022/02/03 22:47:39;;;;;;;4.72;1.30;;;22.20;36.10;;;;;;5032057;28;20497;-69
2022/02/03 22:49:37;;;;;;;2.58;1.40;;;22.20;36.10;;;;;;5028245;28;20399;-69
2022/02/03 22:52:04;;;;;;;3.22;1.48;;;22.20;36.10;;;;;;5031586;28;20886;-69
2022/02/03 22:54:30;;;;;;;2.92;1.33;;;22.20;36.20;;;;;;5032076;28;20455;-69
2022/02/03 22:56:55;;;;;;;3.42;1.48;;;22.20;36.20;;;;;;5032118;28;20387;-69
2022/02/03 23:01:47;;;;;;;3.92;1.33;;;22.20;36.20;;;;;;5031302;28;20752;-69
2022/02/03 23:04:16;;;;;;;3.13;1.40;;;22.20;36.10;;;;;;5030306;28;20748;-69
2022/02/03 23:06:43;;;;;;;2.42;1.20;;;22.20;36.10;;;;;;5029844;28;21592;-69
2022/02/03 23:09:29;;;;;;;3.87;1.37;;;22.20;36.00;;;;;;5032023;28;20386;-69
2022/02/03 23:12:08;;;;;;;2.53;1.20;;;22.10;36.00;;;;;;5031391;28;20418;-69
2022/02/03 23:17:33;;;;;;;2.13;1.30;;;22.10;36.10;;;;;;5031913;28;20397;-69
2022/02/03 23:20:12;;;;;;;2.20;1.00;;;22.10;36.20;;;;;;5031083;28;20437;-69
2022/02/03 23:22:41;;;;;;;2.42;1.05;;;22.10;36.10;;;;;;5032028;28;20402;-69
2022/02/03 23:25:13;;;;;;;2.00;1.10;;;22.00;36.00;;;;;;5030108;28;20395;-69
2022/02/03 23:30:25;;;;;;;2.35;1.10;;;22.00;36.00;;;;;;5031206;28;20386;-70
2022/02/03 23:32:54;;;;;;;1.88;1.23;;;22.00;36.00;;;;;;5031735;28;20395;-70
2022/02/03 23:35:30;;;;;;;2.67;1.13;;;22.00;36.00;;;;;;5031599;28;20383;-70
2022/02/03 23:41:17;;;;;;;1.92;1.08;;;22.00;35.70;;;;;;5031064;28;20443;-69
